Walla Walla, WA

10:07 AM PDT on October 30, 2014 (GMT -0700)
Whitman | Change Station
CLOSE
Current Station
Personal Weather Station
Location: Walla Walla, WA
Elevation: 994 ft
Nearby Weather Stations

Elev 994 ft 46.07 °N, 118.33 °W | Updated 20 minutes ago

Overcast
Overcast
50.4 °F
Feels Like 50.4 °F
N
0.0
Wind Variable Wind from SE
Gusts 4.0 mph

Today
High -- | Low -- °F
--% Chance of Precip.
Yesterday
High -- | Low -- °F
Precip. -- in
7:31 AM 5:41 PM
Waxing Crescent, 45% visible
Pressure 30.03 in
Visibility 4.0 miles
Clouds Overcast 8500 ft
Dew Point 49 °F
Humidity 94%
Rainfall 0.00 in
Snow Depth Not available.
UV 0 out of 12
Pollen 1.90 out of 12
Air Quality Not available.
Flu Activity Not available.
METAR KALW 301653Z 04004KT 4SM R20/4500V5500FT BR OVC085 11/09 A3002 RMK AO2 RAE1555B33E47 SLP168 P0000 T01110094

More Conditions Fewer Conditions

Pressure 30.03 in
Visibility 4.0 miles
Clouds Overcast 8500 ft
Dew Point 49 °F
Humidity 94%
Rainfall 0.00 in
Snow Depth Not available.
UV 0 out of 12
Pollen 1.90 out of 12
Air Quality Not available.
Flu Activity Not available.
METAR KALW 301653Z 04004KT 4SM R20/4500V5500FT BR OVC085 11/09 A3002 RMK AO2 RAE1555B33E47 SLP168 P0000 T01110094

More Conditions Fewer Conditions

Nowcast | as of 6:33 am PDT on October 30, 2014

Patchy dense fog has formed in the Walla Walla Valley along the Blue Mountain foothills of Washington. The visibility will be locally reduced to a quarter of a mile or less at times. The fog will persist through the early morning hours and then will dissipate by mid morning. Motorists are advised to exercise caution and be prepared for sudden visibility changes when traveling early this morning.

×

10-Day Weather Forecast

Almanac

Astronomy

Oct. 30, 2014 Rise Set
Actual Time
Civil Twilight
Nautical Twilight
Astronomical Twilight
Moon
Length of Visible Light
Length of Day
Tomorrow will be .
, % of the Moon is Illuminated

Today's Extremes

State Highs State Lows

Community

WunderPhotos

Upload Photos

1,766,403 photos uploaded!

WunderBlogs® & News

Nearby

Air Quality

  Air Quality AQ Index Pollutant
Not available.

Snow Depth

Station Depth Elevation

Earthquake Activity

City Distance Mag. Time & Date
Minimum magnitude displayed is 2.5.

Coastal Water Temperatures

Place Temperature

Nearby Weather Stations